createdAt,value
2023-08-06T00:02:15.098Z,3.88
2023-08-06T00:04:44.409Z,3.50
2023-08-06T00:07:11.117Z,4.57
2023-08-06T00:09:37.875Z,2.90
2023-08-06T00:12:05.041Z,3.45
2023-08-06T00:14:33.927Z,3.50
2023-08-06T00:17:00.843Z,3.13
2023-08-06T00:19:29.770Z,3.58
2023-08-06T00:21:56.512Z,3.10
2023-08-06T00:24:23.300Z,3.20
2023-08-06T00:26:50.090Z,3.13
2023-08-06T00:29:16.842Z,3.42
2023-08-06T00:31:43.628Z,3.03
2023-08-06T00:34:10.349Z,3.50
2023-08-06T00:36:37.090Z,3.15
2023-08-06T00:39:03.897Z,2.92
2023-08-06T00:41:32.861Z,3.22
2023-08-06T00:43:59.601Z,3.50
2023-08-06T00:46:26.402Z,5.53
2023-08-06T00:48:53.231Z,4.65
2023-08-06T00:51:21.074Z,4.55
2023-08-06T00:53:49.264Z,4.20
2023-08-06T00:56:16.142Z,3.30
2023-08-06T00:58:43.133Z,3.53
2023-08-06T01:01:09.897Z,2.92
2023-08-06T01:03:37.023Z,2.95
2023-08-06T01:06:06.269Z,3.38
2023-08-06T01:08:48.533Z,3.00
2023-08-06T01:11:29.248Z,3.08
2023-08-06T01:14:05.828Z,2.90
2023-08-06T01:16:40.483Z,2.97
2023-08-06T01:19:20.231Z,3.13
2023-08-06T01:21:47.016Z,2.97
2023-08-06T01:24:16.547Z,2.75
2023-08-06T01:26:49.569Z,2.80
2023-08-06T01:29:40.163Z,3.57
2023-08-06T01:32:11.524Z,2.55
2023-08-06T01:34:41.756Z,2.80
2023-08-06T01:37:08.719Z,2.90
2023-08-06T01:39:35.436Z,3.17
2023-08-06T01:42:02.335Z,2.97
2023-08-06T01:44:29.598Z,2.83
2023-08-06T01:46:56.347Z,3.00
2023-08-06T01:49:23.077Z,2.50
2023-08-06T01:51:50.020Z,3.28
2023-08-06T01:54:16.959Z,2.90
2023-08-06T01:56:43.700Z,2.60
2023-08-06T01:59:15.428Z,2.53
2023-08-06T02:01:42.134Z,2.72
2023-08-06T02:04:08.967Z,2.58
2023-08-06T02:06:35.735Z,3.40
2023-08-06T02:09:04.915Z,2.75
2023-08-06T02:11:31.582Z,2.90
2023-08-06T02:13:58.307Z,2.65
2023-08-06T02:16:25.072Z,3.00
2023-08-06T02:18:51.812Z,3.20
2023-08-06T02:21:18.503Z,2.33
2023-08-06T02:23:45.258Z,2.60
2023-08-06T02:26:12.075Z,2.58
2023-08-06T02:28:41.183Z,2.38
2023-08-06T02:31:10.535Z,2.53
2023-08-06T02:33:39.844Z,2.83
2023-08-06T02:36:06.599Z,2.55
2023-08-06T02:38:33.752Z,2.75
2023-08-06T02:41:03.142Z,3.35
2023-08-06T02:43:29.846Z,2.90
2023-08-06T02:46:04.898Z,2.95
2023-08-06T02:48:34.156Z,2.25
2023-08-06T02:51:01.376Z,2.75
2023-08-06T02:53:30.622Z,3.10
2023-08-06T02:55:57.359Z,2.40
2023-08-06T02:58:24.376Z,2.47
2023-08-06T03:01:06.197Z,2.58
2023-08-06T03:03:33.557Z,2.90
2023-08-06T03:06:03.110Z,2.97
2023-08-06T03:08:29.969Z,2.33
2023-08-06T03:10:56.688Z,2.47
2023-08-06T03:13:23.514Z,2.53
2023-08-06T03:15:58.001Z,2.60
2023-08-06T03:18:28.113Z,2.70
2023-08-06T03:20:55.740Z,2.55
2023-08-06T03:23:27.679Z,2.15
2023-08-06T03:25:54.402Z,2.70
2023-08-06T03:28:21.058Z,2.05
2023-08-06T03:30:50.647Z,2.08
2023-08-06T03:33:19.788Z,1.77
2023-08-06T03:35:46.414Z,1.67
2023-08-06T03:38:13.113Z,1.23
2023-08-06T03:40:42.031Z,1.88
2023-08-06T03:43:08.898Z,0.98
2023-08-06T03:45:35.637Z,1.27
2023-08-06T03:48:02.312Z,0.70
2023-08-06T03:50:29.224Z,1.10
2023-08-06T03:52:56.085Z,1.05
2023-08-06T03:55:27.594Z,0.90
2023-08-06T03:57:54.333Z,0.85
2023-08-06T04:00:23.617Z,0.80
2023-08-06T04:02:52.570Z,0.70
2023-08-06T04:05:19.475Z,0.82
2023-08-06T04:07:46.270Z,1.10
2023-08-06T04:10:15.210Z,0.88
2023-08-06T04:12:41.990Z,0.65
2023-08-06T04:15:11.475Z,0.80
2023-08-06T04:17:38.192Z,0.60
2023-08-06T04:20:05.598Z,1.00
2023-08-06T04:22:32.247Z,1.00
2023-08-06T04:24:59.008Z,1.10
2023-08-06T04:27:25.695Z,1.10
2023-08-06T04:29:52.433Z,0.90
2023-08-06T04:32:21.359Z,1.73
2023-08-06T04:34:49.154Z,1.15
2023-08-06T04:37:16.029Z,1.20
2023-08-06T04:39:47.421Z,0.95
2023-08-06T04:42:14.090Z,1.67
2023-08-06T04:44:40.840Z,1.00
2023-08-06T04:47:09.712Z,1.20
2023-08-06T04:49:36.378Z,1.30
2023-08-06T04:52:03.403Z,1.17
2023-08-06T04:54:30.121Z,1.00
2023-08-06T04:56:59.314Z,1.48
2023-08-06T04:59:26.033Z,1.00
2023-08-06T05:01:52.994Z,0.98
2023-08-06T05:04:19.929Z,1.45
2023-08-06T05:06:46.612Z,0.98
2023-08-06T05:09:13.339Z,1.20
2023-08-06T05:11:40.025Z,1.52
2023-08-06T05:14:06.714Z,1.00
2023-08-06T05:16:33.534Z,1.10
2023-08-06T05:19:00.266Z,1.20
2023-08-06T05:21:26.992Z,1.13
2023-08-06T05:23:56.253Z,0.90
2023-08-06T05:26:27.673Z,1.20
2023-08-06T05:28:56.644Z,1.20
2023-08-06T05:31:23.400Z,1.20
2023-08-06T05:33:50.117Z,1.08
2023-08-06T05:36:18.766Z,0.82
2023-08-06T05:38:45.493Z,0.90
2023-08-06T05:41:12.252Z,1.10
2023-08-06T05:43:39.015Z,0.80
2023-08-06T05:46:05.762Z,1.00
2023-08-06T05:48:33.125Z,1.00
2023-08-06T05:50:59.996Z,0.65
2023-08-06T05:53:26.718Z,1.10
2023-08-06T05:55:55.858Z,1.10
2023-08-06T05:58:22.684Z,0.80
2023-08-06T06:00:49.447Z,0.60
2023-08-06T06:03:16.156Z,0.70
2023-08-06T06:05:48.714Z,0.68
2023-08-06T06:08:15.435Z,0.70
2023-08-06T06:10:42.489Z,0.80
2023-08-06T06:13:10.588Z,0.85
2023-08-06T06:15:37.514Z,0.57
2023-08-06T06:18:06.488Z,0.70
2023-08-06T06:20:34.438Z,0.63
2023-08-06T06:23:01.294Z,0.60
2023-08-06T06:25:28.014Z,0.60
2023-08-06T06:27:54.663Z,0.60
2023-08-06T06:30:21.456Z,0.77
2023-08-06T06:32:50.635Z,0.55
2023-08-06T06:35:17.638Z,0.50
2023-08-06T06:37:44.509Z,0.52
2023-08-06T06:40:13.983Z,0.50
2023-08-06T06:42:42.855Z,0.65
2023-08-06T06:45:12.217Z,0.82
2023-08-06T06:47:39.014Z,0.55
2023-08-06T06:50:06.287Z,0.40
2023-08-06T06:52:35.560Z,0.60
2023-08-06T06:55:04.877Z,0.40
2023-08-06T06:57:31.553Z,0.38
2023-08-06T07:00:00.543Z,0.25
2023-08-06T07:02:27.303Z,0.40
2023-08-06T07:04:54.081Z,0.22
2023-08-06T07:07:23.015Z,0.40
2023-08-06T07:09:49.855Z,0.20
2023-08-06T07:12:16.574Z,0.30
2023-08-06T07:14:45.832Z,0.30
2023-08-06T07:17:12.542Z,0.30
2023-08-06T07:19:39.325Z,0.47
2023-08-06T07:22:08.517Z,0.40
2023-08-06T07:24:35.295Z,0.40
2023-08-06T07:27:04.255Z,0.40
2023-08-06T07:29:30.947Z,0.22
2023-08-06T07:31:57.657Z,0.20
2023-08-06T07:34:24.430Z,0.40
2023-08-06T07:36:51.187Z,0.22
2023-08-06T07:39:18.264Z,0.20
2023-08-06T07:41:46.938Z,0.30
2023-08-06T07:44:16.176Z,0.30
2023-08-06T07:46:43.024Z,0.20
2023-08-06T07:49:12.000Z,0.22
2023-08-06T07:51:40.888Z,0.20
2023-08-06T07:54:07.780Z,0.20
2023-08-06T07:56:37.996Z,0.50
2023-08-06T07:59:04.736Z,0.20
2023-08-06T08:01:31.456Z,0.20
2023-08-06T08:03:58.186Z,0.30
2023-08-06T08:06:24.845Z,0.25
2023-08-06T08:08:52.938Z,0.40
2023-08-06T08:11:19.743Z,0.30
2023-08-06T08:13:46.438Z,0.30
2023-08-06T08:16:13.273Z,0.20
2023-08-06T08:18:40.070Z,0.20
2023-08-06T08:21:09.169Z,0.20
2023-08-06T08:23:35.862Z,0.10
2023-08-06T08:26:03.322Z,0.30
2023-08-06T08:28:30.075Z,0.22
2023-08-06T08:30:56.865Z,0.20
2023-08-06T08:33:23.758Z,0.20
2023-08-06T08:35:50.435Z,0.10
2023-08-06T08:38:17.138Z,0.30
2023-08-06T08:40:50.616Z,0.20
2023-08-06T08:43:24.355Z,0.30
2023-08-06T08:48:20.567Z,0.20
2023-08-06T08:50:49.034Z,0.30
2023-08-06T08:53:17.451Z,0.20
2023-08-06T08:55:49.483Z,0.30
2023-08-06T08:58:18.695Z,0.30
2023-08-06T09:00:49.318Z,0.10
2023-08-06T09:03:17.358Z,0.30
2023-08-06T09:05:46.223Z,0.10
2023-08-06T09:08:19.253Z,0.20
2023-08-06T09:10:49.306Z,0.27
2023-08-06T09:13:15.991Z,0.20
2023-08-06T09:15:45.272Z,0.10
2023-08-06T09:18:12.976Z,0.10
2023-08-06T09:20:40.646Z,0.30
2023-08-06T09:23:11.697Z,0.60
2023-08-06T09:25:43.864Z,0.20
2023-08-06T09:28:10.652Z,0.30
2023-08-06T09:30:38.482Z,0.20
2023-08-06T09:33:11.522Z,0.20
2023-08-06T09:35:38.196Z,0.30
2023-08-06T09:38:12.637Z,0.30
2023-08-06T09:40:40.317Z,0.25
2023-08-06T09:43:09.917Z,0.28
2023-08-06T09:45:39.163Z,0.10
2023-08-06T09:48:10.456Z,0.30
2023-08-06T09:50:39.200Z,0.30
2023-08-06T09:53:09.248Z,0.20
2023-08-06T09:55:36.056Z,0.30
2023-08-06T09:58:06.634Z,0.20
2023-08-06T10:00:39.847Z,0.32
2023-08-06T10:03:09.081Z,0.30
2023-08-06T10:05:37.006Z,0.30
2023-08-06T10:08:06.164Z,0.30
2023-08-06T10:10:33.499Z,0.40
2023-08-06T10:13:02.347Z,0.40
2023-08-06T10:15:32.932Z,0.55
2023-08-06T10:18:04.200Z,0.30
2023-08-06T10:20:35.379Z,0.38
2023-08-06T10:23:10.118Z,0.52
2023-08-06T10:25:42.016Z,0.40
2023-08-06T10:28:14.632Z,0.50
2023-08-06T10:30:47.360Z,0.57
2023-08-06T10:33:14.269Z,0.60
2023-08-06T10:35:54.976Z,0.80
2023-08-06T10:38:32.977Z,0.70
2023-08-06T10:41:00.475Z,0.70
2023-08-06T10:43:35.137Z,0.70
2023-08-06T10:46:12.784Z,0.77
2023-08-06T10:48:46.216Z,0.70
2023-08-06T10:51:14.715Z,0.88
2023-08-06T10:53:53.926Z,0.80
2023-08-06T10:56:26.574Z,0.82
2023-08-06T10:58:59.547Z,1.55
2023-08-06T11:01:30.886Z,0.90
2023-08-06T11:04:02.326Z,0.90
2023-08-06T11:06:31.522Z,1.05
2023-08-06T11:09:02.388Z,0.80
2023-08-06T11:11:31.256Z,0.85
2023-08-06T11:13:58.000Z,0.82
2023-08-06T11:16:27.908Z,1.00
2023-08-06T11:18:55.928Z,0.85
2023-08-06T11:21:25.750Z,1.20
2023-08-06T11:23:55.328Z,1.40
2023-08-06T11:26:24.350Z,1.10
2023-08-06T11:28:51.587Z,1.13
2023-08-06T11:31:23.081Z,1.25
2023-08-06T11:33:56.560Z,1.23
2023-08-06T11:36:33.477Z,1.30
2023-08-06T11:39:04.095Z,1.20
2023-08-06T11:41:31.439Z,1.50
2023-08-06T11:43:59.099Z,1.30
2023-08-06T11:46:26.615Z,1.42
2023-08-06T11:49:00.437Z,1.27
2023-08-06T11:51:27.941Z,1.30
2023-08-06T11:53:58.869Z,1.35
2023-08-06T11:56:27.332Z,1.33
2023-08-06T11:58:55.185Z,1.40
2023-08-06T12:01:24.552Z,1.73
2023-08-06T12:03:53.904Z,1.42
2023-08-06T12:06:20.632Z,2.25
2023-08-06T12:08:47.327Z,1.40
2023-08-06T12:11:14.028Z,1.52
2023-08-06T12:13:40.774Z,1.70
2023-08-06T12:16:07.548Z,1.70
2023-08-06T12:18:36.617Z,1.85
2023-08-06T12:21:05.569Z,1.60
2023-08-06T12:23:34.285Z,1.35
2023-08-06T12:26:01.046Z,1.63
2023-08-06T12:28:27.768Z,1.50
2023-08-06T12:30:56.253Z,1.33
2023-08-06T12:33:23.196Z,1.15
2023-08-06T12:35:49.953Z,1.30
2023-08-06T12:38:21.680Z,1.77
2023-08-06T12:40:48.427Z,1.10
2023-08-06T12:43:15.347Z,1.13
2023-08-06T12:45:42.265Z,1.00
2023-08-06T12:48:11.450Z,0.80
2023-08-06T12:50:38.240Z,1.00
2023-08-06T12:53:06.488Z,1.00
2023-08-06T12:55:33.686Z,0.85
2023-08-06T12:58:00.618Z,1.10
2023-08-06T13:00:28.087Z,0.80
2023-08-06T13:02:55.096Z,0.65
2023-08-06T13:05:22.040Z,0.50
2023-08-06T13:07:51.849Z,0.82
2023-08-06T13:10:18.937Z,0.60
2023-08-06T13:12:45.712Z,0.80
2023-08-06T13:15:12.619Z,0.73
2023-08-06T13:17:39.334Z,1.00
2023-08-06T13:20:07.293Z,0.80
2023-08-06T13:22:36.674Z,0.77
2023-08-06T13:25:03.553Z,0.70
2023-08-06T13:27:30.284Z,0.68
2023-08-06T13:29:59.254Z,0.73
2023-08-06T13:32:28.569Z,0.55
2023-08-06T13:34:57.786Z,1.15
2023-08-06T13:37:24.447Z,0.60
2023-08-06T13:39:51.212Z,0.70
2023-08-06T13:42:17.916Z,0.43
2023-08-06T13:44:44.693Z,0.50
2023-08-06T13:47:11.425Z,1.52
2023-08-06T13:49:38.181Z,0.70
2023-08-06T13:52:20.856Z,0.70
2023-08-06T13:54:50.324Z,0.70
2023-08-06T13:57:18.791Z,0.65
2023-08-06T13:59:46.066Z,0.98
2023-08-06T14:02:15.110Z,0.80
2023-08-06T14:04:41.990Z,0.80
2023-08-06T14:07:08.833Z,0.70
2023-08-06T14:09:38.544Z,0.70
2023-08-06T14:12:06.402Z,0.70
2023-08-06T14:14:33.183Z,0.77
2023-08-06T14:17:00.390Z,0.70
2023-08-06T14:19:29.969Z,0.93
2023-08-06T14:21:58.995Z,0.70
2023-08-06T14:24:26.086Z,0.98
2023-08-06T14:26:53.840Z,0.90
2023-08-06T14:29:23.117Z,0.93
2023-08-06T14:31:51.904Z,0.60
2023-08-06T14:34:18.663Z,0.90
2023-08-06T14:36:45.386Z,0.75
2023-08-06T14:39:12.043Z,0.70
2023-08-06T14:41:39.071Z,1.05
2023-08-06T14:44:06.165Z,0.98
2023-08-06T14:46:33.001Z,0.77
2023-08-06T14:48:59.902Z,0.55
2023-08-06T14:51:26.913Z,0.80
2023-08-06T14:53:53.795Z,0.80
2023-08-06T14:56:23.000Z,0.98
2023-08-06T14:58:49.836Z,0.90
2023-08-06T15:01:16.761Z,1.00
2023-08-06T15:03:43.493Z,1.30
2023-08-06T15:06:15.089Z,1.00
2023-08-06T15:08:46.528Z,0.80
2023-08-06T15:11:14.709Z,1.17
2023-08-06T15:13:41.962Z,0.77
2023-08-06T15:16:09.165Z,1.08
2023-08-06T15:18:36.449Z,1.10
2023-08-06T15:21:03.430Z,1.20
2023-08-06T15:23:30.199Z,1.00
2023-08-06T15:25:57.101Z,0.77
2023-08-06T15:28:26.084Z,0.60
2023-08-06T15:30:55.346Z,0.80
2023-08-06T15:33:24.901Z,0.68
2023-08-06T15:35:51.636Z,0.68
2023-08-06T15:38:18.379Z,0.60
2023-08-06T15:40:46.645Z,0.50
2023-08-06T15:43:14.090Z,0.65
2023-08-06T15:45:43.135Z,0.65
2023-08-06T15:48:12.731Z,0.90
2023-08-06T15:50:39.636Z,0.70
2023-08-06T15:53:06.850Z,0.90
2023-08-06T15:55:34.661Z,0.65
2023-08-06T15:58:01.413Z,0.60
2023-08-06T16:00:29.301Z,0.60
2023-08-06T16:02:58.292Z,0.70
2023-08-06T16:05:25.078Z,0.80
2023-08-06T16:07:52.262Z,1.05
2023-08-06T16:10:19.119Z,1.05
2023-08-06T16:12:45.856Z,1.17
2023-08-06T16:15:14.235Z,0.90
2023-08-06T16:17:41.762Z,1.10
2023-08-06T16:20:09.289Z,1.00
2023-08-06T16:22:36.074Z,1.02
2023-08-06T16:25:02.925Z,1.08
2023-08-06T16:27:34.219Z,0.90
2023-08-06T16:30:02.835Z,1.10
2023-08-06T16:32:34.658Z,0.80
2023-08-06T16:35:02.267Z,1.20
2023-08-06T16:37:29.012Z,1.00
2023-08-06T16:39:58.118Z,0.90
2023-08-06T16:42:24.884Z,1.00
2023-08-06T16:44:51.633Z,1.00
2023-08-06T16:47:18.688Z,1.00
2023-08-06T16:49:47.785Z,1.00
2023-08-06T16:52:14.801Z,1.30
2023-08-06T16:54:42.094Z,1.13
2023-08-06T16:57:09.160Z,1.15
2023-08-06T16:59:36.142Z,1.45
2023-08-06T17:02:03.430Z,1.10
2023-08-06T17:04:33.422Z,1.05
2023-08-06T17:07:00.268Z,1.10
2023-08-06T17:09:27.027Z,1.20
2023-08-06T17:11:56.141Z,0.90
2023-08-06T17:14:23.061Z,0.93
2023-08-06T17:16:49.787Z,1.20
2023-08-06T17:19:18.546Z,0.93
2023-08-06T17:21:45.773Z,1.00
2023-08-06T17:24:12.872Z,1.15
2023-08-06T17:26:40.154Z,1.05
2023-08-06T17:29:07.426Z,1.20
2023-08-06T17:31:36.990Z,1.05
2023-08-06T17:34:06.376Z,1.40
2023-08-06T17:36:34.458Z,1.40
2023-08-06T17:39:01.498Z,1.35
2023-08-06T17:41:28.489Z,1.10
2023-08-06T17:43:55.530Z,1.30
2023-08-06T17:46:25.477Z,1.75
2023-08-06T17:48:56.474Z,1.50
2023-08-06T17:51:23.812Z,1.30
2023-08-06T17:53:50.488Z,1.33
2023-08-06T17:56:17.202Z,1.10
2023-08-06T17:58:43.985Z,1.23
2023-08-06T18:01:13.361Z,1.20
2023-08-06T18:03:40.337Z,1.95
2023-08-06T18:06:10.428Z,1.45
2023-08-06T18:08:37.117Z,1.17
2023-08-06T18:11:03.940Z,1.63
2023-08-06T18:13:33.178Z,1.27
2023-08-06T18:16:00.037Z,1.88
2023-08-06T18:18:26.886Z,1.38
2023-08-06T18:20:55.699Z,1.60
2023-08-06T18:23:22.549Z,1.40
2023-08-06T18:25:49.297Z,1.35
2023-08-06T18:28:16.001Z,1.77
2023-08-06T18:30:42.757Z,1.08
2023-08-06T18:33:14.306Z,1.10
2023-08-06T18:35:43.046Z,1.45
2023-08-06T18:38:09.873Z,1.30
2023-08-06T18:40:36.581Z,1.30
2023-08-06T18:43:05.792Z,1.20
2023-08-06T18:45:40.054Z,1.48
2023-08-06T18:48:09.369Z,1.27
2023-08-06T18:50:38.112Z,1.20
2023-08-06T18:53:05.052Z,1.40
2023-08-06T18:55:36.512Z,1.20
2023-08-06T18:58:10.168Z,1.45
2023-08-06T19:00:42.864Z,1.30
2023-08-06T19:03:10.063Z,1.30
2023-08-06T19:05:41.183Z,1.35
2023-08-06T19:08:08.869Z,1.30
2023-08-06T19:10:38.117Z,1.33
2023-08-06T19:13:10.018Z,1.67
2023-08-06T19:15:39.697Z,1.27
2023-08-06T19:18:07.559Z,1.20
2023-08-06T19:20:36.742Z,1.25
2023-08-06T19:23:04.339Z,1.48
2023-08-06T19:25:33.258Z,1.38
2023-08-06T19:28:00.038Z,1.13
2023-08-06T19:30:26.758Z,1.40
2023-08-06T19:32:53.618Z,1.10
2023-08-06T19:35:20.490Z,1.40
2023-08-06T19:37:49.771Z,1.50
2023-08-06T19:40:19.055Z,1.10
2023-08-06T19:42:48.075Z,1.30
2023-08-06T19:45:14.912Z,1.10
2023-08-06T19:47:41.696Z,0.90
2023-08-06T19:50:11.057Z,1.20
2023-08-06T19:52:38.421Z,1.30
2023-08-06T19:55:05.430Z,1.13
2023-08-06T19:57:32.202Z,1.30
2023-08-06T19:59:59.166Z,1.10
2023-08-06T20:02:25.957Z,1.40
2023-08-06T20:04:55.293Z,1.15
2023-08-06T20:07:21.988Z,1.83
2023-08-06T20:09:48.677Z,1.73
2023-08-06T20:12:15.409Z,1.48
2023-08-06T20:14:46.198Z,1.10
2023-08-06T20:17:16.543Z,1.20
2023-08-06T20:19:43.329Z,1.65
2023-08-06T20:22:10.116Z,1.85
2023-08-06T20:24:36.907Z,1.10
2023-08-06T20:27:07.345Z,1.10
2023-08-06T20:29:36.188Z,1.50
2023-08-06T20:32:03.479Z,1.50
2023-08-06T20:34:30.258Z,1.88
2023-08-06T20:36:57.759Z,1.23
2023-08-06T20:39:29.143Z,1.80
2023-08-06T20:41:56.120Z,1.50
2023-08-06T20:44:27.646Z,1.50
2023-08-06T20:46:54.609Z,1.80
2023-08-06T20:49:21.634Z,1.42
2023-08-06T20:51:48.481Z,1.70
2023-08-06T20:54:15.282Z,1.83
2023-08-06T20:56:44.305Z,1.25
2023-08-06T20:59:11.127Z,1.20
2023-08-06T21:01:37.862Z,2.28
2023-08-06T21:04:12.069Z,1.70
2023-08-06T21:06:39.738Z,1.67
2023-08-06T21:09:07.907Z,1.50
2023-08-06T21:11:37.716Z,1.35
2023-08-06T21:14:04.474Z,1.60
2023-08-06T21:16:31.253Z,1.60
2023-08-06T21:19:00.757Z,1.20
2023-08-06T21:21:31.122Z,3.03
2023-08-06T21:23:57.794Z,1.60
2023-08-06T21:26:24.528Z,1.73
2023-08-06T21:28:51.263Z,1.80
2023-08-06T21:31:18.375Z,1.42
2023-08-06T21:33:46.741Z,2.00
2023-08-06T21:36:13.550Z,1.88
2023-08-06T21:38:42.782Z,1.55
2023-08-06T21:41:16.437Z,1.40
2023-08-06T21:43:50.773Z,1.48
2023-08-06T21:46:21.149Z,1.42
2023-08-06T21:48:49.878Z,1.50
2023-08-06T21:51:25.293Z,1.10
2023-08-06T21:53:52.060Z,1.60
2023-08-06T21:56:18.894Z,1.50
2023-08-06T21:58:50.009Z,2.28
2023-08-06T22:01:18.450Z,1.77
2023-08-06T22:03:46.133Z,1.50
2023-08-06T22:06:13.881Z,1.50
2023-08-06T22:08:41.999Z,1.50
2023-08-06T22:11:09.301Z,1.65
2023-08-06T22:13:38.830Z,2.00
2023-08-06T22:16:06.882Z,1.30
2023-08-06T22:18:33.928Z,2.17
2023-08-06T22:21:00.711Z,1.63
2023-08-06T22:23:27.571Z,1.95
2023-08-06T22:25:56.364Z,1.42
2023-08-06T22:28:26.128Z,1.35
2023-08-06T22:30:53.192Z,1.50
2023-08-06T22:33:20.834Z,1.38
2023-08-06T22:35:47.649Z,1.45
2023-08-06T22:38:14.452Z,1.60
2023-08-06T22:40:41.308Z,1.42
2023-08-06T22:43:08.000Z,1.45
2023-08-06T22:45:34.852Z,1.40
2023-08-06T22:48:01.731Z,1.63
2023-08-06T22:50:28.531Z,1.67
2023-08-06T22:52:58.011Z,1.40
2023-08-06T22:55:56.393Z,1.52
2023-08-06T22:58:13.793Z,1.35
2023-08-06T23:00:40.544Z,2.53
2023-08-06T23:03:11.428Z,1.58
2023-08-06T23:05:40.739Z,1.60
2023-08-06T23:08:08.605Z,1.42
2023-08-06T23:10:38.256Z,1.30
2023-08-06T23:13:07.601Z,1.38
2023-08-06T23:15:34.850Z,1.35
2023-08-06T23:18:02.206Z,1.50
2023-08-06T23:20:31.191Z,1.42
2023-08-06T23:22:57.880Z,1.35
2023-08-06T23:25:24.612Z,1.40
2023-08-06T23:27:53.772Z,1.42
2023-08-06T23:30:20.512Z,1.50
2023-08-06T23:32:51.353Z,2.33
2023-08-06T23:35:18.348Z,1.63
2023-08-06T23:37:45.048Z,1.27
2023-08-06T23:40:11.988Z,1.50
2023-08-06T23:42:41.155Z,1.58
2023-08-06T23:45:08.488Z,1.52
2023-08-06T23:47:35.338Z,1.23
2023-08-06T23:50:02.054Z,1.20
2023-08-06T23:52:31.034Z,1.65
2023-08-06T23:54:57.678Z,1.27
2023-08-06T23:57:28.872Z,1.33
